Time;durP1;ratioP1;P1;durP2;ratioP2;P2;SDS_P1;SDS_P2;PMS_P1;PMS_P2;Temp;Humidity;BMP_temperature;BMP_pressure;BME280_temperature;BME280_humidity;BME280_pressure;Samples;Min_cycle;Max_cycle;Signal;HPM_P1;HPM_P2
2021/10/05 06:05:24;;;;;;;4.60;4.20;;;15.70;59.70;;;;;;2709738;35;20752;-78
2021/10/05 06:07:51;;;;;;;5.93;5.33;;;13.00;76.70;;;;;;2626648;30;20413;-78
2021/10/05 06:10:17;;;;;;;6.57;4.90;;;12.80;77.00;;;;;;2627599;30;20974;-79
2021/10/05 06:12:43;;;;;;;5.77;5.23;;;13.00;76.60;;;;;;2625225;38;20375;-77
2021/10/05 06:15:11;;;;;;;5.50;5.00;;;12.90;76.30;;;;;;2629015;30;20650;-78
2021/10/05 06:17:41;;;;;;;6.37;5.77;;;13.00;77.20;;;;;;2627473;38;20198;-79
2021/10/05 06:20:12;;;;;;;6.87;4.60;;;13.20;76.40;;;;;;2629275;38;20356;-79
2021/10/05 06:22:39;;;;;;;5.77;5.20;;;13.20;76.30;;;;;;2628904;30;20367;-78
2021/10/05 06:25:08;;;;;;;5.60;5.10;;;13.30;76.00;;;;;;2626535;38;20802;-78
2021/10/05 06:27:34;;;;;;;5.60;4.57;;;13.40;76.10;;;;;;2628850;30;20820;-78
2021/10/05 06:30:00;;;;;;;5.80;5.13;;;13.30;76.00;;;;;;2627312;38;20387;-77
2021/10/05 06:32:28;;;;;;;8.50;5.50;;;13.30;75.80;;;;;;2628960;30;20350;-79
2021/10/05 06:34:54;;;;;;;4.90;4.40;;;13.20;75.90;;;;;;2627813;30;20363;-78
2021/10/05 06:37:21;;;;;;;5.93;5.33;;;13.20;76.70;;;;;;2629723;30;20491;-79
2021/10/05 06:39:47;;;;;;;5.30;4.40;;;13.30;75.30;;;;;;2628545;30;20928;-78
2021/10/05 06:42:13;;;;;;;7.30;5.23;;;13.40;74.50;;;;;;2627873;30;20382;-78
2021/10/05 06:44:39;;;;;;;6.33;5.17;;;13.50;74.40;;;;;;2628906;38;20486;-78
2021/10/05 06:47:05;;;;;;;4.77;4.03;;;13.80;74.70;;;;;;2629692;30;20586;-78
2021/10/05 06:49:32;;;;;;;4.97;4.47;;;13.90;74.00;;;;;;2627886;30;20359;-78
2021/10/05 06:51:57;;;;;;;6.57;4.03;;;13.90;74.10;;;;;;2628301;30;20190;-79
2021/10/05 06:54:23;;;;;;;8.07;4.70;;;14.00;73.60;;;;;;2629810;30;20891;-78
2021/10/05 06:56:52;;;;;;;6.00;5.00;;;13.80;72.80;;;;;;2629607;30;20234;-78
2021/10/05 06:59:18;;;;;;;12.23;3.37;;;14.10;73.70;;;;;;2629782;30;20192;-77
2021/10/05 07:01:44;;;;;;;4.33;3.93;;;14.10;72.40;;;;;;2627851;30;20912;-79
2021/10/05 07:04:10;;;;;;;4.53;4.10;;;14.10;73.00;;;;;;2627419;38;20438;-78
2021/10/05 07:06:37;;;;;;;4.87;4.40;;;14.40;72.80;;;;;;2629032;38;20368;-78
2021/10/05 07:09:05;;;;;;;4.67;3.40;;;14.90;71.60;;;;;;2629242;30;20189;-78
2021/10/05 07:11:33;;;;;;;4.53;3.77;;;15.10;70.40;;;;;;2627817;30;20452;-78
2021/10/05 07:14:01;;;;;;;3.90;3.60;;;14.90;70.40;;;;;;2627418;38;20398;-77
2021/10/05 07:16:27;;;;;;;7.50;3.93;;;14.70;70.30;;;;;;2627782;30;20947;-79
2021/10/05 07:18:53;;;;;;;5.47;4.30;;;14.80;71.60;;;;;;2628216;38;20866;-79
2021/10/05 07:21:20;;;;;;;5.77;4.27;;;15.10;71.20;;;;;;2628389;30;20379;-78
2021/10/05 07:23:47;;;;;;;5.10;4.00;;;15.10;70.70;;;;;;2628202;38;20192;-77
2021/10/05 07:26:16;;;;;;;5.80;4.13;;;15.40;68.20;;;;;;2629402;30;20430;-78
2021/10/05 07:28:42;;;;;;;3.73;3.43;;;16.10;67.00;;;;;;2627690;30;20367;-77
2021/10/05 07:31:07;;;;;;;3.80;3.43;;;16.20;66.30;;;;;;2629491;30;20363;-77
2021/10/05 07:33:34;;;;;;;4.40;3.17;;;16.10;66.30;;;;;;2628944;30;20359;-77
2021/10/05 07:36:00;;;;;;;3.97;3.30;;;16.20;65.80;;;;;;2629024;38;20285;-78
2021/10/05 07:38:25;;;;;;;3.50;3.20;;;16.50;64.70;;;;;;2630043;30;20753;-77
2021/10/05 07:40:51;;;;;;;6.03;3.27;;;16.40;64.00;;;;;;2628592;38;20691;-77
2021/10/05 07:43:17;;;;;;;3.47;2.70;;;17.20;62.90;;;;;;2629633;30;20186;-79
2021/10/05 07:45:44;;;;;;;4.10;3.67;;;17.20;62.00;;;;;;2629333;30;20705;-78
2021/10/05 07:48:11;;;;;;;3.40;3.10;;;16.50;64.20;;;;;;2628829;30;20190;-78
2021/10/05 07:50:37;;;;;;;3.80;3.47;;;15.90;66.80;;;;;;2629908;30;21273;-78
2021/10/05 07:53:04;;;;;;;3.60;3.30;;;15.70;68.00;;;;;;2628191;38;20343;-77
2021/10/05 07:55:31;;;;;;;3.50;3.17;;;15.70;67.40;;;;;;2629972;30;20379;-78
2021/10/05 07:57:57;;;;;;;3.50;3.20;;;15.80;66.20;;;;;;2629710;30;20486;-78
2021/10/05 08:00:23;;;;;;;5.50;2.83;;;16.70;62.90;;;;;;2628623;30;20363;-79
2021/10/05 08:02:48;;;;;;;3.57;3.10;;;17.20;61.10;;;;;;2629222;30;20423;-78
2021/10/05 08:05:16;;;;;;;4.27;2.50;;;17.50;59.60;;;;;;2629472;30;20194;-77
2021/10/05 08:07:46;;;;;;;4.00;1.90;;;17.30;60.60;;;;;;2627880;30;20194;-79
2021/10/05 08:10:14;;;;;;;2.70;2.37;;;17.70;59.80;;;;;;2629556;30;20750;-77
2021/10/05 08:12:40;;;;;;;2.43;2.23;;;17.60;60.40;;;;;;2627748;30;20366;-77
2021/10/05 08:15:07;;;;;;;2.27;2.07;;;17.10;61.90;;;;;;2628206;38;20379;-77
2021/10/05 08:17:33;;;;;;;2.03;1.90;;;16.90;62.40;;;;;;2630012;30;20817;-79
2021/10/05 08:20:02;;;;;;;3.10;2.30;;;17.80;59.70;;;;;;2628053;30;20389;-79
2021/10/05 08:22:27;;;;;;;2.43;2.23;;;18.00;58.30;;;;;;2628795;30;20885;-78
2021/10/05 08:24:53;;;;;;;4.13;2.60;;;17.70;59.90;;;;;;2629515;38;20371;-79
2021/10/05 08:27:19;;;;;;;3.87;2.03;;;18.20;58.40;;;;;;2629996;30;20202;-79
2021/10/05 08:29:45;;;;;;;2.90;2.50;;;19.20;56.80;;;;;;2628371;30;20678;-78
2021/10/05 08:32:14;;;;;;;2.30;2.00;;;20.30;54.30;;;;;;2629108;30;20196;-79
2021/10/05 08:34:39;;;;;;;2.70;2.50;;;21.00;52.60;;;;;;2629553;30;20372;-79
2021/10/05 08:37:05;;;;;;;2.10;2.00;;;21.30;51.80;;;;;;2630360;30;20386;-78
2021/10/05 08:39:31;;;;;;;4.27;1.73;;;21.20;51.00;;;;;;2631670;30;20213;-79
2021/10/05 08:42:01;;;;;;;2.10;1.83;;;21.20;51.80;;;;;;2631260;30;20249;-79
2021/10/05 08:44:27;;;;;;;2.30;2.10;;;21.30;52.30;;;;;;2628240;38;20398;-79
2021/10/05 08:46:54;;;;;;;3.53;1.80;;;21.20;51.60;;;;;;2628957;30;20387;-78
2021/10/05 08:49:22;;;;;;;2.93;1.80;;;21.20;52.60;;;;;;2627856;30;20966;-78
2021/10/05 08:51:49;;;;;;;2.03;1.83;;;21.40;51.10;;;;;;2628116;38;20383;-79
2021/10/05 08:54:16;;;;;;;2.20;1.73;;;20.20;52.60;;;;;;2628864;30;20406;-78
2021/10/05 08:56:43;;;;;;;1.70;1.60;;;20.30;52.70;;;;;;2628965;30;20356;-79
2021/10/05 08:59:10;;;;;;;1.90;1.80;;;20.30;52.60;;;;;;2628435;30;20578;-78
2021/10/05 09:01:36;;;;;;;1.77;1.67;;;20.70;52.00;;;;;;2629297;30;20375;-77
2021/10/05 09:04:04;;;;;;;3.50;1.57;;;21.40;51.30;;;;;;2629528;38;20426;-78
2021/10/05 09:06:31;;;;;;;1.57;1.47;;;22.00;49.70;;;;;;2629032;38;20354;-79
2021/10/05 09:08:57;;;;;;;2.10;1.90;;;22.20;49.00;;;;;;2628844;30;20434;-79
2021/10/05 09:11:25;;;;;;;2.70;1.50;;;22.00;49.20;;;;;;2628214;38;20363;-78
2021/10/05 09:13:57;;;;;;;2.60;1.50;;;21.20;50.00;;;;;;2630093;38;20911;-79
2021/10/05 09:16:31;;;;;;;2.43;1.60;;;21.40;49.90;;;;;;2628962;30;20865;-79
2021/10/05 09:19:06;;;;;;;1.70;1.60;;;20.90;51.90;;;;;;2629338;30;20363;-78
2021/10/05 09:21:36;;;;;;;2.43;1.90;;;20.00;52.40;;;;;;2629451;30;20355;-78
2021/10/05 09:24:04;;;;;;;1.63;1.53;;;19.70;52.50;;;;;;2629152;30;20375;-78
2021/10/05 09:26:39;;;;;;;1.50;1.37;;;20.00;52.40;;;;;;2629632;30;20371;-78
2021/10/05 09:29:15;;;;;;;1.33;1.23;;;20.00;52.40;;;;;;2629393;30;20378;-79
2021/10/05 09:32:01;;;;;;;2.90;1.80;;;20.60;51.90;;;;;;2629213;30;20370;-79
2021/10/05 09:34:54;;;;;;;1.80;1.47;;;22.30;48.40;;;;;;2628419;30;20394;-78
2021/10/05 09:37:28;;;;;;;2.37;1.70;;;22.30;48.10;;;;;;2628874;30;20367;-79
2021/10/05 09:40:02;;;;;;;4.33;1.60;;;21.70;48.30;;;;;;2630764;30;20791;-78
2021/10/05 09:42:41;;;;;;;2.40;1.83;;;21.60;49.30;;;;;;2630744;30;20378;-78
2021/10/05 09:45:15;;;;;;;2.60;1.63;;;22.50;47.10;;;;;;2630307;38;20347;-79
2021/10/05 09:48:07;;;;;;;9.17;2.53;;;23.30;46.00;;;;;;2628992;30;20374;-78
2021/10/05 09:50:36;;;;;;;1.40;1.30;;;22.30;46.60;;;;;;2627820;38;20995;-78
2021/10/05 09:53:06;;;;;;;2.43;1.17;;;21.70;48.20;;;;;;2627650;30;20374;-79
2021/10/05 09:55:43;;;;;;;1.93;1.50;;;22.60;47.50;;;;;;2628178;30;20371;-77
2021/10/05 09:58:10;;;;;;;2.40;1.60;;;23.90;44.60;;;;;;2629819;30;20500;-78
2021/10/05 10:00:39;;;;;;;2.60;1.30;;;23.90;44.50;;;;;;2627539;38;20374;-79
2021/10/05 10:03:07;;;;;;;1.90;1.30;;;23.30;45.20;;;;;;2628703;30;20486;-77
2021/10/05 10:05:38;;;;;;;5.67;1.67;;;23.00;45.00;;;;;;2627321;38;20995;-79
2021/10/05 10:08:06;;;;;;;1.60;1.30;;;23.10;44.80;;;;;;2629235;30;20367;-79
2021/10/05 10:10:34;;;;;;;2.87;1.40;;;22.90;44.60;;;;;;2628897;30;21250;-78
2021/10/05 10:13:08;;;;;;;1.60;1.40;;;23.50;44.60;;;;;;2627760;30;20394;-79
2021/10/05 10:15:36;;;;;;;1.70;1.23;;;23.80;43.60;;;;;;2627472;31;20379;-78
2021/10/05 10:18:07;;;;;;;2.03;1.53;;;23.90;43.60;;;;;;2627462;30;20370;-78
2021/10/05 10:20:34;;;;;;;1.63;1.20;;;23.30;43.30;;;;;;2628682;30;20363;-78
2021/10/05 10:23:01;;;;;;;2.10;1.37;;;23.10;45.50;;;;;;2629149;38;20382;-78
2021/10/05 10:25:32;;;;;;;1.23;1.00;;;22.70;45.40;;;;;;2628855;30;20398;-77
2021/10/05 10:28:14;;;;;;;1.40;1.17;;;23.70;44.60;;;;;;2627992;30;20590;-77
2021/10/05 10:30:52;;;;;;;1.33;1.23;;;24.00;42.80;;;;;;2628448;30;20363;-78
2021/10/05 10:33:19;;;;;;;1.10;1.00;;;23.70;44.10;;;;;;2629671;30;20457;-78
2021/10/05 10:35:52;;;;;;;2.50;1.20;;;22.60;44.50;;;;;;2628123;30;20770;-77
2021/10/05 10:38:27;;;;;;;4.20;1.17;;;23.70;44.90;;;;;;2628571;30;20708;-78
2021/10/05 10:40:52;;;;;;;1.57;1.47;;;23.70;42.60;;;;;;2630271;30;20366;-77
2021/10/05 10:43:21;;;;;;;4.90;1.40;;;24.10;43.70;;;;;;2630385;30;20534;-77
2021/10/05 10:45:57;;;;;;;1.13;1.07;;;23.60;44.30;;;;;;2628972;38;20198;-78
2021/10/05 10:48:36;;;;;;;2.30;1.20;;;24.20;43.20;;;;;;2629049;38;20397;-78
2021/10/05 10:51:13;;;;;;;1.83;1.10;;;24.10;42.60;;;;;;2627893;38;20450;-78
2021/10/05 10:53:40;;;;;;;2.10;1.47;;;24.20;43.80;;;;;;2628956;38;20901;-77
2021/10/05 10:56:08;;;;;;;6.03;1.53;;;25.00;41.80;;;;;;2628521;38;20462;-77
2021/10/05 10:58:40;;;;;;;2.60;1.27;;;24.00;43.80;;;;;;2629102;30;20430;-78
2021/10/05 11:01:11;;;;;;;1.23;1.13;;;24.20;43.00;;;;;;2630072;30;20371;-78
2021/10/05 11:03:37;;;;;;;3.47;1.60;;;24.30;42.70;;;;;;2629191;38;20378;-77
2021/10/05 11:06:15;;;;;;;2.00;1.20;;;24.20;43.60;;;;;;2627961;38;20481;-78
2021/10/05 11:08:53;;;;;;;1.30;1.10;;;23.30;45.00;;;;;;2628116;30;20382;-77
2021/10/05 11:11:53;;;;;;;1.97;1.50;;;23.20;44.60;;;;;;2629358;38;20375;-78
2021/10/05 11:14:23;;;;;;;2.60;1.63;;;24.60;43.00;;;;;;2628992;30;20379;-77
2021/10/05 11:17:07;;;;;;;4.37;1.13;;;24.80;42.70;;;;;;2628184;30;20971;-80
2021/10/05 11:19:35;;;;;;;1.40;1.20;;;25.30;41.50;;;;;;2628952;30;20909;-78
2021/10/05 11:22:03;;;;;;;1.10;1.00;;;24.80;43.90;;;;;;2627237;31;20371;-78
2021/10/05 11:24:47;;;;;;;2.30;1.47;;;24.10;42.60;;;;;;2627116;38;20529;-77
2021/10/05 11:27:17;;;;;;;2.43;1.37;;;22.70;44.40;;;;;;2627953;38;20834;-80
2021/10/05 11:29:43;;;;;;;1.50;1.20;;;23.60;44.90;;;;;;2629689;38;20398;-78
2021/10/05 11:32:13;;;;;;;3.20;1.27;;;23.80;44.50;;;;;;2628222;30;20373;-77
2021/10/05 11:34:41;;;;;;;3.90;1.50;;;23.40;45.00;;;;;;2629812;30;20367;-78
2021/10/05 11:37:10;;;;;;;3.83;2.20;;;23.60;45.30;;;;;;2628304;38;20398;-77
2021/10/05 11:39:37;;;;;;;2.23;1.50;;;24.70;43.60;;;;;;2628301;31;20784;-79
2021/10/05 11:42:10;;;;;;;2.80;1.50;;;24.70;43.20;;;;;;2628421;30;20509;-78
2021/10/05 11:44:45;;;;;;;2.20;1.43;;;25.50;42.40;;;;;;2630265;30;20887;-78
2021/10/05 11:47:15;;;;;;;2.77;1.50;;;24.70;43.50;;;;;;2630381;30;20426;-78
2021/10/05 11:49:51;;;;;;;3.73;1.50;;;23.00;45.80;;;;;;2628089;38;20378;-79
2021/10/05 11:52:25;;;;;;;1.43;1.33;;;24.10;45.00;;;;;;2631923;30;20324;-79
2021/10/05 11:54:52;;;;;;;1.87;1.60;;;25.10;42.90;;;;;;2627571;38;20374;-78
2021/10/05 11:57:24;;;;;;;2.17;1.50;;;23.80;45.50;;;;;;2628596;38;20375;-82
2021/10/05 11:59:50;;;;;;;1.80;1.30;;;23.90;44.80;;;;;;2629762;30;20371;-77
2021/10/05 12:02:19;;;;;;;1.83;1.30;;;23.50;44.60;;;;;;2629774;38;20995;-79
2021/10/05 12:04:47;;;;;;;1.60;1.50;;;23.80;44.00;;;;;;2628868;38;20374;-78
2021/10/05 12:07:20;;;;;;;3.23;1.47;;;24.30;43.50;;;;;;2628662;38;20833;-78
2021/10/05 12:09:48;;;;;;;1.80;1.60;;;24.10;43.70;;;;;;2628469;30;20378;-79
2021/10/05 12:12:18;;;;;;;1.57;1.20;;;25.00;42.60;;;;;;2629583;30;20869;-79
2021/10/05 12:14:56;;;;;;;1.63;1.53;;;23.70;43.10;;;;;;2628098;38;20370;-80
2021/10/05 12:17:23;;;;;;;3.60;1.90;;;23.80;43.20;;;;;;2629992;30;20369;-78
2021/10/05 12:19:49;;;;;;;4.07;2.50;;;23.80;44.30;;;;;;2629822;38;20339;-79
2021/10/05 12:22:31;;;;;;;1.47;1.27;;;23.60;43.90;;;;;;2628385;38;20387;-79
2021/10/05 12:25:13;;;;;;;6.63;1.70;;;23.80;44.20;;;;;;2631110;30;20290;-79
2021/10/05 12:27:42;;;;;;;1.63;1.37;;;23.80;44.80;;;;;;2629554;30;20427;-79
2021/10/05 12:30:18;;;;;;;2.90;1.83;;;24.10;43.80;;;;;;2630948;30;20394;-79
2021/10/05 12:32:52;;;;;;;1.93;1.67;;;24.80;44.20;;;;;;2629756;30;20401;-79
2021/10/05 12:35:35;;;;;;;1.50;1.40;;;24.70;43.60;;;;;;2630165;30;20398;-79
2021/10/05 12:38:06;;;;;;;2.60;1.53;;;24.30;44.30;;;;;;2629057;30;20859;-77
2021/10/05 12:40:42;;;;;;;3.60;1.50;;;22.90;46.40;;;;;;2629538;30;20375;-78
2021/10/05 12:43:15;;;;;;;2.20;1.30;;;22.00;48.10;;;;;;2629892;30;20825;-78
2021/10/05 12:46:04;;;;;;;1.33;1.23;;;21.00;49.90;;;;;;2630439;30;20494;-79
2021/10/05 12:49:09;;;;;;;6.20;1.30;;;20.60;50.90;;;;;;2629680;38;20364;-79
2021/10/05 12:51:35;;;;;;;3.23;1.97;;;20.60;51.00;;;;;;2630579;30;20431;-79
2021/10/05 12:54:01;;;;;;;2.17;1.70;;;20.90;51.40;;;;;;2629576;30;20395;-80
2021/10/05 12:56:29;;;;;;;3.63;1.67;;;22.10;48.30;;;;;;2630717;30;20793;-79
2021/10/05 12:59:13;;;;;;;4.23;1.53;;;22.80;46.60;;;;;;2629413;38;20527;-77
2021/10/05 13:01:40;;;;;;;1.53;1.43;;;23.60;46.00;;;;;;2629625;30;20370;-78
2021/10/05 13:04:09;;;;;;;5.87;1.87;;;22.40;47.10;;;;;;2629683;30;20379;-78
2021/10/05 13:06:35;;;;;;;1.70;1.60;;;21.70;49.40;;;;;;2628722;30;20402;-79
2021/10/05 13:09:05;;;;;;;3.30;1.80;;;21.30;50.00;;;;;;2628504;38;20498;-78
2021/10/05 13:11:35;;;;;;;2.93;1.90;;;21.80;49.20;;;;;;2629931;38;20531;-77
2021/10/05 13:14:02;;;;;;;3.03;1.63;;;22.40;48.80;;;;;;2628901;38;20371;-78
2021/10/05 13:16:30;;;;;;;3.70;2.03;;;23.50;46.60;;;;;;2628648;38;20491;-79
2021/10/05 13:18:56;;;;;;;2.17;1.63;;;24.50;45.60;;;;;;2629267;30;20351;-77
2021/10/05 13:21:24;;;;;;;2.80;1.60;;;23.60;46.30;;;;;;2628369;38;20918;-78
2021/10/05 13:23:52;;;;;;;2.70;2.13;;;21.20;49.40;;;;;;2628895;30;20988;-78
2021/10/05 13:26:17;;;;;;;3.57;1.67;;;21.30;50.80;;;;;;2629851;30;20382;-77
2021/10/05 13:28:44;;;;;;;1.80;1.63;;;21.50;50.80;;;;;;2628263;38;20429;-79
2021/10/05 13:31:09;;;;;;;2.33;1.87;;;21.30;50.10;;;;;;2628953;38;20730;-77
2021/10/05 13:33:35;;;;;;;2.83;1.77;;;22.00;49.20;;;;;;2628660;38;20406;-78
2021/10/05 13:36:01;;;;;;;1.83;1.70;;;22.80;47.40;;;;;;2629433;30;20236;-79
2021/10/05 13:38:26;;;;;;;3.73;1.77;;;23.30;46.70;;;;;;2629052;31;20205;-78
2021/10/05 13:40:54;;;;;;;3.33;2.60;;;23.00;46.80;;;;;;2630809;30;20194;-77
2021/10/05 13:43:21;;;;;;;2.20;1.57;;;22.50;48.60;;;;;;2629669;30;20212;-78
2021/10/05 13:45:50;;;;;;;2.40;1.63;;;22.00;48.50;;;;;;2629313;30;20788;-79
2021/10/05 13:48:16;;;;;;;3.90;1.97;;;22.10;49.50;;;;;;2630250;30;20366;-78
2021/10/05 13:50:44;;;;;;;5.67;1.70;;;21.90;50.10;;;;;;2628392;38;20378;-76
2021/10/05 13:53:10;;;;;;;2.30;1.70;;;22.00;48.80;;;;;;2628581;38;20208;-77
2021/10/05 13:55:36;;;;;;;5.23;1.60;;;21.20;50.20;;;;;;2630431;30;20374;-78
2021/10/05 13:58:03;;;;;;;1.90;1.63;;;21.40;50.20;;;;;;2629517;30;20390;-78
2021/10/05 14:00:29;;;;;;;3.17;1.97;;;21.10;50.60;;;;;;2630241;38;20379;-78
2021/10/05 14:02:55;;;;;;;2.50;2.07;;;20.30;52.00;;;;;;2630118;30;20403;-78
2021/10/05 14:05:21;;;;;;;2.10;1.47;;;20.10;53.10;;;;;;2630711;30;20281;-78
2021/10/05 14:07:51;;;;;;;1.90;1.40;;;19.80;55.40;;;;;;2634779;30;20737;-78
2021/10/05 14:10:17;;;;;;;5.27;2.13;;;19.20;56.20;;;;;;2629223;38;20201;-77
2021/10/05 14:12:49;;;;;;;4.40;1.50;;;19.00;58.90;;;;;;2629340;30;20373;-77
2021/10/05 14:15:15;;;;;;;1.93;1.53;;;18.60;61.60;;;;;;2628297;38;20193;-77
2021/10/05 14:17:41;;;;;;;2.63;1.70;;;18.00;62.90;;;;;;2628674;30;20417;-77
2021/10/05 14:20:07;;;;;;;4.37;2.07;;;17.60;63.30;;;;;;2626701;38;20371;-77
2021/10/05 14:22:34;;;;;;;1.63;1.53;;;17.40;64.60;;;;;;2629363;30;20367;-77
2021/10/05 14:25:08;;;;;;;1.80;1.70;;;17.30;65.20;;;;;;2628451;38;20387;-77
2021/10/05 14:27:35;;;;;;;1.97;1.60;;;17.20;67.60;;;;;;2625855;38;20477;-78
2021/10/05 14:30:00;;;;;;;6.00;1.60;;;16.90;67.40;;;;;;2629851;30;20383;-78
2021/10/05 14:32:26;;;;;;;2.10;1.90;;;16.80;70.10;;;;;;2630508;30;20973;-80
2021/10/05 14:34:52;;;;;;;4.20;1.73;;;16.70;70.30;;;;;;2630707;30;20229;-79
2021/10/05 14:37:18;;;;;;;2.73;1.73;;;16.70;70.80;;;;;;2630707;30;20194;-79
2021/10/05 14:39:44;;;;;;;3.33;2.00;;;16.60;69.60;;;;;;2630008;30;20313;-80
2021/10/05 14:42:09;;;;;;;2.27;2.07;;;16.50;71.90;;;;;;2629261;30;20398;-80
2021/10/05 14:44:35;;;;;;;2.07;1.70;;;16.30;71.40;;;;;;2628831;38;20265;-79
2021/10/05 14:47:01;;;;;;;3.13;2.03;;;16.30;73.20;;;;;;2628372;38;20217;-78
2021/10/05 14:49:29;;;;;;;3.87;2.67;;;16.10;73.00;;;;;;2627842;30;20414;-76
2021/10/05 14:51:55;;;;;;;4.00;1.90;;;16.10;74.00;;;;;;2627589;38;20285;-77
2021/10/05 14:54:23;;;;;;;2.67;2.03;;;16.00;74.60;;;;;;2629172;30;20409;-78
2021/10/05 14:56:52;;;;;;;2.63;1.90;;;15.80;75.60;;;;;;2629669;38;21068;-77
2021/10/05 14:59:19;;;;;;;4.00;2.13;;;15.90;76.90;;;;;;2630059;30;20398;-79
2021/10/05 15:01:45;;;;;;;3.17;2.87;;;15.60;76.60;;;;;;2628047;30;20367;-79
2021/10/05 15:04:14;;;;;;;3.27;2.03;;;15.50;77.70;;;;;;2627952;30;20367;-79
2021/10/05 15:06:39;;;;;;;2.30;2.10;;;15.40;78.00;;;;;;2628315;30;20174;-79
2021/10/05 15:09:05;;;;;;;5.17;2.73;;;15.20;78.60;;;;;;2628657;30;20749;-79
2021/10/05 15:11:32;;;;;;;2.70;2.30;;;15.20;79.80;;;;;;2629011;30;20221;-78
2021/10/05 15:14:04;;;;;;;7.07;2.60;;;15.00;79.20;;;;;;2628361;38;20182;-80
2021/10/05 15:16:29;;;;;;;2.87;2.30;;;14.90;79.90;;;;;;2627391;38;20367;-78
2021/10/05 15:18:55;;;;;;;4.00;2.70;;;14.70;81.20;;;;;;2628504;30;20371;-79
2021/10/05 15:21:21;;;;;;;4.13;2.97;;;14.60;81.60;;;;;;2628087;30;20212;-80
2021/10/05 15:23:56;;;;;;;7.37;2.63;;;14.70;82.00;;;;;;2630833;30;20269;-78
2021/10/05 15:26:26;;;;;;;2.83;2.10;;;14.60;82.80;;;;;;2629994;30;20329;-81
2021/10/05 15:28:53;;;;;;;4.73;2.57;;;14.50;81.90;;;;;;2628444;38;20379;-80
2021/10/05 15:31:20;;;;;;;4.00;2.40;;;14.50;82.60;;;;;;2628531;38;20386;-80
2021/10/05 15:33:49;;;;;;;4.07;2.80;;;14.50;82.00;;;;;;2628379;38;20950;-80
2021/10/05 15:36:19;;;;;;;4.03;2.70;;;14.50;81.70;;;;;;2629631;30;20897;-78
2021/10/05 15:38:50;;;;;;;3.90;2.90;;;14.50;83.10;;;;;;2629081;30;20782;-79
2021/10/05 15:41:17;;;;;;;2.70;2.50;;;14.50;82.60;;;;;;2627618;38;20418;-81
2021/10/05 15:43:43;;;;;;;3.03;2.73;;;14.50;82.60;;;;;;2627913;38;20449;-80
2021/10/05 15:46:11;;;;;;;3.40;3.07;;;14.40;83.50;;;;;;2629286;30;20463;-79
2021/10/05 15:48:37;;;;;;;3.20;2.50;;;14.50;83.80;;;;;;2629579;30;20398;-79
2021/10/05 15:53:28;;;;;;;2.90;2.63;;;14.60;84.60;;;;;;2627790;30;20241;-81
2021/10/05 15:55:54;;;;;;;4.10;2.80;;;14.60;83.00;;;;;;2628552;38;20194;-79
2021/10/05 15:58:21;;;;;;;3.77;2.90;;;14.50;83.80;;;;;;2632386;30;20218;-80
2021/10/05 16:00:46;;;;;;;5.47;3.20;;;14.40;84.20;;;;;;2631350;30;20221;-79
2021/10/05 16:03:14;;;;;;;3.40;2.97;;;14.40;84.70;;;;;;2629776;38;20375;-79
2021/10/05 16:05:41;;;;;;;3.17;2.60;;;14.60;84.70;;;;;;2628853;30;20640;-79
2021/10/05 16:08:08;;;;;;;6.10;2.83;;;14.50;84.40;;;;;;2629375;30;20458;-79
2021/10/05 16:10:34;;;;;;;3.00;2.70;;;14.40;84.30;;;;;;2628369;30;20390;-79
2021/10/05 16:13:00;;;;;;;3.60;3.30;;;14.60;84.50;;;;;;2627897;30;20377;-79
2021/10/05 16:15:27;;;;;;;4.57;3.20;;;14.50;83.90;;;;;;2628640;30;20414;-78
2021/10/05 16:17:53;;;;;;;4.23;3.47;;;14.90;84.10;;;;;;2627452;38;20186;-78
2021/10/05 16:20:21;;;;;;;3.53;3.00;;;14.90;83.60;;;;;;2628782;38;20414;-79
2021/10/05 16:22:47;;;;;;;4.43;2.90;;;15.40;82.80;;;;;;2627926;38;20690;-80
2021/10/05 16:25:13;;;;;;;3.13;2.80;;;15.10;82.90;;;;;;2629323;30;20359;-79
2021/10/05 16:27:39;;;;;;;3.97;2.70;;;15.20;82.60;;;;;;2628426;30;20190;-79
2021/10/05 16:30:07;;;;;;;6.40;4.40;;;15.20;83.00;;;;;;2629472;38;20771;-80
2021/10/05 16:32:35;;;;;;;5.07;3.10;;;15.20;82.80;;;;;;2628802;38;20205;-79
2021/10/05 16:35:00;;;;;;;4.93;3.10;;;15.50;81.80;;;;;;2628645;30;21334;-80
2021/10/05 16:37:27;;;;;;;5.30;3.00;;;15.40;82.20;;;;;;2628455;30;20381;-79
2021/10/05 16:39:53;;;;;;;4.30;3.17;;;14.80;83.90;;;;;;2627912;30;20233;-80
2021/10/05 16:42:19;;;;;;;5.03;2.80;;;14.40;86.60;;;;;;2627593;30;20414;-81
2021/10/05 16:44:44;;;;;;;2.50;1.97;;;14.20;86.90;;;;;;2628796;30;20178;-78
2021/10/05 16:47:16;;;;;;;3.67;2.30;;;14.30;84.90;;;;;;2629319;30;20787;-78
2021/10/05 16:49:42;;;;;;;2.30;1.40;;;14.20;83.50;;;;;;2630355;30;20732;-77
2021/10/05 16:52:09;;;;;;;2.70;1.67;;;14.10;83.20;;;;;;2628775;30;20367;-78
2021/10/05 16:54:34;;;;;;;1.40;1.30;;;14.30;83.60;;;;;;2628881;38;20200;-80
2021/10/05 16:57:04;;;;;;;1.57;1.47;;;14.10;82.90;;;;;;2629581;30;20754;-82
2021/10/05 16:59:32;;;;;;;2.97;2.20;;;14.20;82.60;;;;;;2629786;30;20186;-81
2021/10/05 17:01:59;;;;;;;2.93;2.37;;;14.20;83.20;;;;;;2629169;30;20874;-80
2021/10/05 17:04:25;;;;;;;2.40;2.00;;;14.20;83.10;;;;;;2627771;38;20367;-79
2021/10/05 17:06:50;;;;;;;4.80;2.03;;;14.30;83.30;;;;;;2628629;30;20902;-79
2021/10/05 17:09:19;;;;;;;4.13;2.23;;;14.50;83.20;;;;;;2626639;38;20201;-80
2021/10/05 17:11:45;;;;;;;4.20;2.47;;;14.40;83.40;;;;;;2626045;30;20384;-78
2021/10/05 17:14:12;;;;;;;6.13;2.23;;;14.30;83.70;;;;;;2625318;38;20371;-79
2021/10/05 17:16:38;;;;;;;2.43;2.23;;;14.50;83.70;;;;;;2627156;30;20698;-80
2021/10/05 17:19:05;;;;;;;5.57;2.53;;;14.30;83.50;;;;;;2626214;30;20383;-80
2021/10/05 17:21:32;;;;;;;4.87;2.10;;;14.20;83.90;;;;;;2628976;30;20692;-79
2021/10/05 17:23:58;;;;;;;2.10;1.90;;;14.20;84.10;;;;;;2626776;38;20940;-80
2021/10/05 17:26:23;;;;;;;2.27;2.10;;;14.00;84.60;;;;;;2628775;30;20856;-78
2021/10/05 17:28:58;;;;;;;7.03;2.43;;;14.40;84.50;;;;;;2628471;30;20402;-79
2021/10/05 17:31:25;;;;;;;3.47;2.10;;;14.30;84.50;;;;;;2627296;30;20425;-80
